Time;durP1;ratioP1;P1;durP2;ratioP2;P2;SDS_P1;SDS_P2;PMS_P1;PMS_P2;Temp;Humidity;BMP_temperature;BMP_pressure;BME280_temperature;BME280_humidity;BME280_pressure;Samples;Min_cycle;Max_cycle;Signal;HPM_P1;HPM_P2
2022/10/04 00:01:27;;;;;;;;;;;;;;;11.64;100.00;102266.97;5045950;28;19935;-72
2022/10/04 00:04:01;;;;;;;;;;;;;;;11.64;100.00;102260.78;5047371;28;19929;-73
2022/10/04 00:06:26;;;;;;;;;;;;;;;11.64;100.00;102260.78;5045232;28;19928;-72
2022/10/04 00:08:52;;;;;;;;;;;;;;;11.62;100.00;102259.94;5046601;28;20325;-72
2022/10/04 00:11:19;;;;;;;;;;;;;;;11.61;100.00;102261.72;5046120;28;20019;-72
2022/10/04 00:13:45;;;;;;;;;;;;;;;11.60;100.00;102253.81;5043897;28;20074;-72
2022/10/04 00:16:14;;;;;;;;;;;;;;;11.58;100.00;102260.94;5044472;28;21375;-72
2022/10/04 00:18:39;;;;;;;;;;;;;;;11.55;100.00;102268.06;5044044;28;21440;-72
2022/10/04 00:21:06;;;;;;;;;;;;;;;11.53;100.00;102267.25;5043956;28;19932;-72
2022/10/04 00:23:34;;;;;;;;;;;;;;;11.52;100.00;102268.16;5045841;28;19946;-72
2022/10/04 00:26:01;;;;;;;;;;;;;;;11.51;100.00;102276.16;5046492;28;19924;-72
2022/10/04 00:28:28;;;;;;;;;;;;;;;11.50;100.00;102267.31;5046100;28;19924;-72
2022/10/04 00:31:12;;;;;;;;;;;;;;;11.49;100.00;102264.72;5047174;28;20434;-72
2022/10/04 00:33:38;;;;;;;;;;;;;;;11.48;100.00;102255.00;5046171;28;19982;-72
2022/10/04 00:36:25;;;;;;;;;;;;;;;11.47;100.00;102245.31;5043585;28;19948;-73
2022/10/04 00:39:03;;;;;;;;;;;;;;;11.46;100.00;102252.41;5046105;28;20562;-73
2022/10/04 00:41:33;;;;;;;;;;;;;;;11.45;100.00;102247.16;5046877;28;19924;-72
2022/10/04 00:43:58;;;;;;;;;;;;;;;11.43;100.00;102241.88;5044174;28;19933;-73
2022/10/04 00:46:24;;;;;;;;;;;;;;;11.41;100.00;102235.75;5042276;28;19932;-72
2022/10/04 00:48:59;;;;;;;;;;;;;;;11.41;100.00;102233.09;5045136;28;20394;-72
2022/10/04 00:51:38;;;;;;;;;;;;;;;11.40;100.00;102239.31;5041920;28;20007;-72
2022/10/04 00:54:04;;;;;;;;;;;;;;;11.39;100.00;102238.44;5035177;28;19928;-72
2022/10/04 00:56:32;;;;;;;;;;;;;;;11.39;100.00;102227.81;5046492;28;19971;-72
2022/10/04 00:58:57;;;;;;;;;;;;;;;11.38;100.00;102219.91;5046470;28;19929;-71
2022/10/04 01:01:24;;;;;;;;;;;;;;;11.38;100.00;102225.22;5044501;28;20401;-72
2022/10/04 01:03:51;;;;;;;;;;;;;;;11.37;100.00;102226.13;5061886;28;19955;-72
2022/10/04 01:06:16;;;;;;;;;;;;;;;11.37;100.00;102224.34;5048511;28;19920;-72
2022/10/04 01:08:45;;;;;;;;;;;;;;;11.36;100.00;102232.34;5052570;28;20658;-72
2022/10/04 01:11:30;;;;;;;;;;;;;;;11.35;100.00;102218.25;5054100;28;20391;-72
2022/10/04 01:14:16;;;;;;;;;;;;;;;11.34;100.00;102220.91;5052773;28;19924;-72
2022/10/04 01:16:42;;;;;;;;;;;;;;;11.34;100.00;102218.28;5068108;28;19929;-72
2022/10/04 01:19:26;;;;;;;;;;;;;;;11.33;100.00;102219.19;5033998;28;19935;-72
2022/10/04 01:22:06;;;;;;;;;;;;;;;11.32;100.00;102209.50;5052352;28;19929;-73
2022/10/04 01:24:33;;;;;;;;;;;;;;;11.30;100.00;102212.19;5052818;28;19928;-72
2022/10/04 01:26:59;;;;;;;;;;;;;;;11.28;100.00;102214.88;5051384;28;19932;-72
2022/10/04 01:29:25;;;;;;;;;;;;;;;11.26;100.00;102208.75;5051021;28;20011;-73
2022/10/04 01:31:51;;;;;;;;;;;;;;;11.23;100.00;102211.47;5052297;28;20728;-73
2022/10/04 01:34:17;;;;;;;;;;;;;;;11.22;100.00;102214.16;5052407;28;20360;-73
2022/10/04 01:36:46;;;;;;;;;;;;;;;11.18;100.00;102202.78;5051991;28;20219;-73
2022/10/04 01:39:11;;;;;;;;;;;;;;;11.14;100.00;102196.69;5053698;28;20032;-73
2022/10/04 01:41:55;;;;;;;;;;;;;;;11.11;100.00;102193.25;5052360;28;20391;-73
2022/10/04 01:44:31;;;;;;;;;;;;;;;11.06;100.00;102196.00;5052632;28;19925;-73
2022/10/04 01:46:58;;;;;;;;;;;;;;;11.03;100.00;102192.56;5069357;28;20504;-73
2022/10/04 01:49:26;;;;;;;;;;;;;;;10.99;100.00;102189.13;5052210;28;20043;-73
2022/10/04 01:51:55;;;;;;;;;;;;;;;10.95;100.00;102184.81;5068230;28;19931;-73
2022/10/04 01:54:22;;;;;;;;;;;;;;;10.90;100.00;102181.41;5051782;28;19931;-73
2022/10/04 01:56:55;;;;;;;;;;;;;;;10.87;100.00;102182.34;5052099;28;19928;-73
2022/10/04 01:59:22;;;;;;;;;;;;;;;10.80;100.00;102178.13;5051516;28;20019;-72
2022/10/04 02:01:52;;;;;;;;;;;;;;;10.72;100.00;102176.53;5052552;28;19931;-73
2022/10/04 02:04:18;;;;;;;;;;;;;;;10.67;100.00;102167.81;5052678;28;20162;-73
2022/10/04 02:06:44;;;;;;;;;;;;;;;10.63;100.00;102163.53;5052774;28;20388;-73
2022/10/04 02:09:11;;;;;;;;;;;;;;;10.57;100.00;102156.59;5050370;28;19928;-73
2022/10/04 02:11:38;;;;;;;;;;;;;;;10.54;100.00;102151.38;5050125;28;20884;-73
2022/10/04 02:14:04;;;;;;;;;;;;;;;10.52;100.00;102144.38;5050308;28;19959;-73
2022/10/04 02:16:30;;;;;;;;;;;;;;;10.49;100.00;102139.13;5050671;28;20387;-73
2022/10/04 02:18:55;;;;;;;;;;;;;;;10.44;100.00;102142.78;5047375;28;19924;-73
2022/10/04 02:21:21;;;;;;;;;;;;;;;10.43;100.00;102137.53;5049321;28;19925;-73
2022/10/04 02:23:46;;;;;;;;;;;;;;;10.40;100.00;102130.50;5046545;28;19928;-73
2022/10/04 02:26:11;;;;;;;;;;;;;;;10.38;100.00;102128.78;5046083;28;19931;-72
2022/10/04 02:28:37;;;;;;;;;;;;;;;10.36;100.00;102118.25;5046500;28;19968;-72
2022/10/04 02:33:48;;;;;;;;;;;;;;;10.30;100.00;102110.47;5047896;28;19924;-71
2022/10/04 02:36:14;;;;;;;;;;;;;;;10.28;100.00;102109.59;5048705;28;20046;-71
2022/10/04 02:38:41;;;;;;;;;;;;;;;10.25;100.00;102101.75;5047420;28;20293;-72
2022/10/04 02:41:24;;;;;;;;;;;;;;;10.22;100.00;102097.41;5048275;28;19983;-72
2022/10/04 02:43:54;;;;;;;;;;;;;;;10.19;100.00;102095.69;5049108;28;19924;-72
2022/10/04 02:46:19;;;;;;;;;;;;;;;10.16;100.00;102092.25;5064356;28;20645;-72
2022/10/04 02:48:46;;;;;;;;;;;;;;;10.12;100.00;102090.56;5049241;28;19970;-72
2022/10/04 02:51:30;;;;;;;;;;;;;;;10.07;100.00;102088.03;5047964;28;19933;-72
2022/10/04 02:54:05;;;;;;;;;;;;;;;10.03;100.00;102094.31;5049221;28;20027;-72
2022/10/04 02:56:31;;;;;;;;;;;;;;;9.99;100.00;102097.94;5049115;28;19929;-71
2022/10/04 02:59:06;;;;;;;;;;;;;;;9.95;100.00;102093.59;5047859;28;20050;-71
2022/10/04 03:01:50;;;;;;;;;;;;;;;9.90;100.00;102088.41;5047578;28;19932;-71
2022/10/04 03:04:16;;;;;;;;;;;;;;;9.85;100.00;102085.88;5048639;28;19929;-72
2022/10/04 03:06:44;;;;;;;;;;;;;;;9.83;100.00;102087.72;5048667;27;20402;-72
2022/10/04 03:09:10;;;;;;;;;;;;;;;9.80;100.00;102084.25;5046197;28;19935;-72
2022/10/04 03:11:36;;;;;;;;;;;;;;;9.74;100.00;102082.59;5047304;28;19928;-72
2022/10/04 03:14:01;;;;;;;;;;;;;;;9.71;100.00;102074.75;5047813;28;20292;-72
2022/10/04 03:16:32;;;;;;;;;;;;;;;9.65;100.00;102073.97;5046180;28;19924;-72
2022/10/04 03:18:57;;;;;;;;;;;;;;;9.62;100.00;102084.63;5054850;28;19934;-73
2022/10/04 03:21:23;;;;;;;;;;;;;;;9.59;100.00;102068.81;5044947;28;20295;-72
2022/10/04 03:23:49;;;;;;;;;;;;;;;9.58;100.00;102066.22;5046400;28;19924;-72
2022/10/04 03:26:27;;;;;;;;;;;;;;;9.56;100.00;102083.88;5046489;28;20394;-72
2022/10/04 03:28:53;;;;;;;;;;;;;;;9.57;100.00;102075.03;5047563;28;19924;-72
2022/10/04 03:31:18;;;;;;;;;;;;;;;9.57;100.00;102072.41;5045831;28;20116;-73
2022/10/04 03:33:44;;;;;;;;;;;;;;;9.57;100.00;102067.09;5046995;28;21253;-72
2022/10/04 03:36:11;;;;;;;;;;;;;;;9.56;100.00;102066.25;5048924;28;19995;-71
2022/10/04 03:38:37;;;;;;;;;;;;;;;9.55;100.00;102072.44;5046304;28;20367;-72
2022/10/04 03:41:02;;;;;;;;;;;;;;;9.54;100.00;102076.00;5045024;28;19974;-72
2022/10/04 03:43:30;;;;;;;;;;;;;;;9.53;100.00;102078.66;5048072;28;19928;-72
2022/10/04 03:45:56;;;;;;;;;;;;;;;9.51;100.00;102081.34;5062606;28;19935;-72
2022/10/04 03:48:33;;;;;;;;;;;;;;;9.49;100.00;102070.78;5063067;28;19978;-72
2022/10/04 03:50:58;;;;;;;;;;;;;;;9.49;100.00;102067.28;5063191;28;19972;-72
2022/10/04 03:53:26;;;;;;;;;;;;;;;9.47;100.00;102061.13;5046599;28;20071;-72
2022/10/04 03:55:51;;;;;;;;;;;;;;;9.46;100.00;102072.63;5045025;28;20438;-72
2022/10/04 03:58:17;;;;;;;;;;;;;;;9.44;100.00;102072.69;5047464;28;20729;-72
2022/10/04 04:00:43;;;;;;;;;;;;;;;9.43;100.00;102062.97;5046696;28;19929;-72
2022/10/04 04:03:11;;;;;;;;;;;;;;;9.41;100.00;102054.22;5045186;28;19976;-72
2022/10/04 04:05:45;;;;;;;;;;;;;;;9.42;100.00;102049.81;5044265;28;19929;-72
2022/10/04 04:08:19;;;;;;;;;;;;;;;9.42;100.00;102050.66;5045509;28;19920;-72
2022/10/04 04:10:45;;;;;;;;;;;;;;;9.41;100.00;102045.44;5045699;28;20383;-72
2022/10/04 04:13:17;;;;;;;;;;;;;;;9.40;100.00;102039.28;5079963;28;19925;-72
2022/10/04 04:15:44;;;;;;;;;;;;;;;9.40;100.00;102051.59;5047268;28;19950;-72
2022/10/04 04:18:18;;;;;;;;;;;;;;;9.38;100.00;102052.50;5045514;28;19921;-72
2022/10/04 04:20:43;;;;;;;;;;;;;;;9.37;100.00;102047.25;5045585;28;20012;-72
2022/10/04 04:23:21;;;;;;;;;;;;;;;9.34;100.00;102053.50;5046733;28;19933;-72
2022/10/04 04:25:47;;;;;;;;;;;;;;;9.33;100.00;102045.59;5062478;28;20366;-72
2022/10/04 04:28:31;;;;;;;;;;;;;;;9.30;100.00;102041.25;5030602;28;19929;-72
2022/10/04 04:31:04;;;;;;;;;;;;;;;9.28;100.00;102042.16;5064262;28;19921;-72
2022/10/04 04:33:42;;;;;;;;;;;;;;;9.25;100.00;102032.53;5049220;28;19999;-72
2022/10/04 04:36:10;;;;;;;;;;;;;;;9.22;100.00;102032.59;5044889;28;19924;-72
2022/10/04 04:39:32;;;;;;;;;;;;;;;9.18;100.00;102030.91;5046186;28;21353;-71
2022/10/04 04:41:21;;;;;;;;;;;;;;;9.14;100.00;102035.41;5044969;28;20032;-72
2022/10/04 04:43:46;;;;;;;;;;;;;;;9.13;100.00;102022.22;5045977;28;19924;-72
2022/10/04 04:46:12;;;;;;;;;;;;;;;9.12;100.00;102025.75;5045781;28;19921;-72
2022/10/04 04:48:38;;;;;;;;;;;;;;;9.08;100.00;102023.19;5044776;28;19968;-72
2022/10/04 04:51:03;;;;;;;;;;;;;;;9.07;100.00;102016.16;5045462;28;20035;-72
2022/10/04 04:53:28;;;;;;;;;;;;;;;9.04;100.00;102013.56;5047002;28;19932;-72
2022/10/04 04:55:55;;;;;;;;;;;;;;;9.04;100.00;102007.44;5046091;28;20617;-72
2022/10/04 04:58:22;;;;;;;;;;;;;;;9.04;100.00;102012.72;5046431;28;19924;-72
2022/10/04 05:01:02;;;;;;;;;;;;;;;9.03;100.00;102006.56;5044554;28;19956;-72
2022/10/04 05:03:32;;;;;;;;;;;;;;;9.04;100.00;102002.16;5027515;28;20011;-72
2022/10/04 05:06:01;;;;;;;;;;;;;;;9.05;100.00;102003.88;5046984;28;20291;-72
2022/10/04 05:08:27;;;;;;;;;;;;;;;9.05;100.00;101998.59;5046018;28;19928;-72
2022/10/04 05:10:59;;;;;;;;;;;;;;;9.05;100.00;102010.03;5044898;28;19951;-72
2022/10/04 05:13:30;;;;;;;;;;;;;;;9.05;100.00;102003.88;5047347;28;19929;-72
2022/10/04 05:15:56;;;;;;;;;;;;;;;9.05;100.00;102010.03;5061559;28;19925;-72
2022/10/04 05:18:28;;;;;;;;;;;;;;;9.05;100.00;102015.31;5045525;28;19925;-71
2022/10/04 05:20:53;;;;;;;;;;;;;;;9.05;100.00;102019.75;5047059;28;19929;-72
2022/10/04 05:23:19;;;;;;;;;;;;;;;9.04;100.00;102018.84;5046800;28;19924;-72
2022/10/04 05:25:44;;;;;;;;;;;;;;;9.05;100.00;102017.94;5046793;28;20062;-72
2022/10/04 05:28:10;;;;;;;;;;;;;;;9.05;100.00;102020.59;5026529;28;19929;-72
2022/10/04 05:30:39;;;;;;;;;;;;;;;9.06;100.00;102016.19;5041581;28;19925;-72
2022/10/04 05:33:05;;;;;;;;;;;;;;;9.05;100.00;102020.59;5045571;28;19931;-72
2022/10/04 05:35:41;;;;;;;;;;;;;;;9.05;100.00;102017.94;5045586;28;19932;-72
2022/10/04 05:38:16;;;;;;;;;;;;;;;9.07;100.00;102020.56;5045481;28;20477;-72
2022/10/04 05:40:41;;;;;;;;;;;;;;;9.06;100.00;102009.13;5047375;28;19973;-72
2022/10/04 05:43:21;;;;;;;;;;;;;;;9.07;100.00;102010.88;5044252;28;19929;-72
2022/10/04 05:45:47;;;;;;;;;;;;;;;9.08;100.00;102019.66;5043354;28;20603;-72
2022/10/04 05:48:13;;;;;;;;;;;;;;;9.08;100.00;102011.75;5060401;28;20007;-72
2022/10/04 05:50:41;;;;;;;;;;;;;;;9.06;100.00;102006.47;5044678;28;21385;-72
2022/10/04 05:53:13;;;;;;;;;;;;;;;9.04;100.00;102008.28;5045904;28;19928;-71
2022/10/04 05:55:38;;;;;;;;;;;;;;;9.05;100.00;102004.75;5049568;28;21380;-72
2022/10/04 05:58:18;;;;;;;;;;;;;;;9.05;100.00;101998.59;5049054;28;20299;-72
2022/10/04 06:01:02;;;;;;;;;;;;;;;9.04;100.00;101994.22;5050648;28;19932;-72
2022/10/04 06:03:46;;;;;;;;;;;;;;;9.06;100.00;101995.06;5049657;28;20026;-72
2022/10/04 06:06:15;;;;;;;;;;;;;;;9.06;100.00;101995.91;5047316;28;19957;-73
2022/10/04 06:08:47;;;;;;;;;;;;;;;9.07;100.00;101994.16;5048951;28;20494;-72
2022/10/04 06:11:17;;;;;;;;;;;;;;;9.08;100.00;101999.41;5048900;28;19929;-72
2022/10/04 06:13:51;;;;;;;;;;;;;;;9.10;100.00;101994.97;5048331;28;20003;-72
2022/10/04 06:16:19;;;;;;;;;;;;;;;9.12;100.00;101997.56;5050757;28;19924;-72
2022/10/04 06:18:57;;;;;;;;;;;;;;;9.12;100.00;101989.66;5050750;28;19925;-72
2022/10/04 06:21:41;;;;;;;;;;;;;;;9.13;100.00;101991.38;5047243;28;19929;-72
2022/10/04 06:24:10;;;;;;;;;;;;;;;9.14;100.00;101993.13;5047881;28;19929;-72
2022/10/04 06:26:39;;;;;;;;;;;;;;;9.13;100.00;101993.16;5048435;28;19921;-72
2022/10/04 06:29:09;;;;;;;;;;;;;;;9.14;100.00;101992.28;5050177;28;19928;-72
2022/10/04 06:31:54;;;;;;;;;;;;;;;9.15;100.00;101989.56;5049401;28;20252;-72
2022/10/04 06:34:19;;;;;;;;;;;;;;;9.16;100.00;101982.53;5049036;28;20379;-72
2022/10/04 06:36:51;;;;;;;;;;;;;;;9.17;100.00;101971.94;5063513;28;20217;-72
2022/10/04 06:39:32;;;;;;;;;;;;;;;9.17;100.00;101973.69;5047261;28;20019;-72
2022/10/04 06:42:06;;;;;;;;;;;;;;;9.17;100.00;101973.69;5046498;28;20059;-72
2022/10/04 06:44:35;;;;;;;;;;;;;;;9.17;100.00;101973.69;5046774;28;19925;-72
2022/10/04 06:47:06;;;;;;;;;;;;;;;9.16;100.00;101972.81;5050967;28;19928;-72
2022/10/04 06:49:32;;;;;;;;;;;;;;;9.17;100.00;101976.34;5049669;28;19977;-72
2022/10/04 06:52:01;;;;;;;;;;;;;;;9.18;100.00;101972.78;5049091;28;20083;-73
2022/10/04 06:55:05;;;;;;;;;;;;;;;9.21;100.00;101972.75;5047416;28;20001;-72
2022/10/04 06:57:34;;;;;;;;;;;;;;;9.26;100.00;101964.72;5035074;28;19936;-72
2022/10/04 07:00:05;;;;;;;;;;;;;;;9.30;100.00;101959.31;5035207;28;19951;-72
2022/10/04 07:02:34;;;;;;;;;;;;;;;9.36;100.00;101945.97;5031936;28;20497;-72
2022/10/04 07:05:20;;;;;;;;;;;;;;;9.44;100.00;101950.19;5055114;28;20483;-72
2022/10/04 07:07:49;;;;;;;;;;;;;;;9.50;100.00;101942.13;5048456;28;20573;-72
2022/10/04 07:10:18;;;;;;;;;;;;;;;9.57;100.00;101940.19;5030357;28;19933;-72
2022/10/04 07:12:47;;;;;;;;;;;;;;;9.63;100.00;101940.94;5047067;28;20325;-72
2022/10/04 07:15:20;;;;;;;;;;;;;;;9.72;100.00;101945.16;5046576;28;19924;-72
2022/10/04 07:17:46;;;;;;;;;;;;;;;9.80;100.00;101950.22;5064667;28;19928;-72
2022/10/04 07:20:17;;;;;;;;;;;;;;;9.84;100.00;101954.53;5049268;28;19987;-72
2022/10/04 07:22:42;;;;;;;;;;;;;;;9.88;100.00;101945.63;5043536;28;19929;-71
2022/10/04 07:25:15;;;;;;;;;;;;;;;9.90;100.00;101951.75;5047155;28;19928;-71
2022/10/04 07:27:43;;;;;;;;;;;;;;;9.92;100.00;101955.22;5046991;28;19932;-71
2022/10/04 07:30:13;;;;;;;;;;;;;;;9.94;100.00;101956.94;5047331;28;19929;-71
2022/10/04 07:32:43;;;;;;;;;;;;;;;9.95;100.00;101958.69;5062245;28;19936;-71
2022/10/04 07:35:08;;;;;;;;;;;;;;;9.96;100.00;101958.66;5046329;28;20257;-72
2022/10/04 07:37:35;;;;;;;;;;;;;;;9.97;100.00;101960.38;5046203;28;20400;-72
2022/10/04 07:40:03;;;;;;;;;;;;;;;9.99;100.00;101952.41;5045816;28;19924;-71
2022/10/04 07:42:35;;;;;;;;;;;;;;;10.01;100.00;101946.19;5028475;28;19929;-71
2022/10/04 07:45:19;;;;;;;;;;;;;;;10.06;100.00;101956.66;5043474;28;19924;-71
2022/10/04 07:47:45;;;;;;;;;;;;;;;10.10;100.00;101958.31;5046921;28;19998;-71
2022/10/04 07:50:18;;;;;;;;;;;;;;;10.16;100.00;101967.88;5047979;28;20430;-72
2022/10/04 07:52:47;;;;;;;;;;;;;;;10.23;100.00;101965.94;5045833;28;20413;-72
2022/10/04 07:55:16;;;;;;;;;;;;;;;10.30;100.00;101963.06;5047596;28;19920;-72
2022/10/04 07:57:45;;;;;;;;;;;;;;;10.39;100.00;101966.38;5046574;28;19960;-72
2022/10/04 08:00:18;;;;;;;;;;;;;;;10.48;100.00;101965.31;5048461;28;20082;-72
2022/10/04 08:02:43;;;;;;;;;;;;;;;10.56;100.00;101968.59;5047396;28;19929;-72
2022/10/04 08:05:16;;;;;;;;;;;;;;;10.65;100.00;101962.19;5046306;28;19925;-72
2022/10/04 08:08:00;;;;;;;;;;;;;;;10.77;100.00;101974.22;5062556;28;19963;-72
2022/10/04 08:10:32;;;;;;;;;;;;;;;10.91;100.00;101960.59;5047960;28;19929;-72
2022/10/04 08:13:17;;;;;;;;;;;;;;;11.03;100.00;101956.69;5062163;28;19951;-72
2022/10/04 08:15:42;;;;;;;;;;;;;;;11.16;100.00;101965.19;5047674;28;19928;-72
2022/10/04 08:18:20;;;;;;;;;;;;;;;11.26;100.00;101967.50;5045891;28;19924;-72
2022/10/04 08:20:49;;;;;;;;;;;;;;;11.37;100.00;101963.63;5035548;28;19990;-72
2022/10/04 08:23:16;;;;;;;;;;;;;;;11.43;100.00;101968.75;5046282;28;20292;-72
2022/10/04 08:25:46;;;;;;;;;;;;;;;11.52;100.00;101962.28;5042253;28;20287;-72
2022/10/04 08:31:11;;;;;;;;;;;;;;;11.72;100.00;101963.44;5040880;28;19979;-72
2022/10/04 08:33:55;;;;;;;;;;;;;;;11.80;100.00;101961.41;5042631;28;19940;-72
2022/10/04 08:36:39;;;;;;;;;;;;;;;11.90;100.00;101962.84;5043481;28;20357;-72
2022/10/04 08:39:05;;;;;;;;;;;;;;;11.98;100.00;101962.56;5042792;28;19929;-72
2022/10/04 08:42:03;;;;;;;;;;;;;;;12.02;100.00;101961.56;5058432;28;19978;-73
2022/10/04 08:44:48;;;;;;;;;;;;;;;12.08;100.00;101961.38;5015215;28;20319;-73
2022/10/04 08:47:20;;;;;;;;;;;;;;;12.15;100.00;101954.06;5043009;28;20399;-72
2022/10/04 08:49:56;;;;;;;;;;;;;;;12.19;100.00;101962.78;5024548;28;19990;-73
2022/10/04 08:52:39;;;;;;;;;;;;;;;12.22;100.00;101960.06;5039813;28;19940;-73
2022/10/04 08:55:24;;;;;;;;;;;;;;;12.27;100.00;101965.19;5057849;28;20533;-72
2022/10/04 08:57:55;;;;;;;;;;;;;;;12.30;100.00;101965.06;5041634;28;19935;-72
2022/10/04 09:00:21;;;;;;;;;;;;;;;12.34;100.00;101964.94;5040837;28;19954;-72
2022/10/04 09:02:49;;;;;;;;;;;;;;;12.41;100.00;101967.38;5039129;28;20431;-73
2022/10/04 09:05:28;;;;;;;;;;;;;;;12.50;100.00;101964.38;5043305;28;20026;-73
2022/10/04 09:08:05;;;;;;;;;;;;;;;12.59;100.00;101964.03;5044127;28;19931;-72
2022/10/04 09:10:46;;;;;;;;;;;;;;;12.67;100.00;101962.91;5043623;28;19924;-72
2022/10/04 09:13:12;;;;;;;;;;;;;;;12.72;100.00;101963.59;5041258;28;20003;-72
2022/10/04 09:15:50;;;;;;;;;;;;;;;12.79;100.00;101966.91;5036047;28;19936;-72
2022/10/04 09:18:48;;;;;;;;;;;;;;;12.86;100.00;101963.97;5039267;28;19935;-72
2022/10/04 09:21:40;;;;;;;;;;;;;;;12.96;100.00;101964.47;5020931;28;19929;-73
2022/10/04 09:24:08;;;;;;;;;;;;;;;13.03;100.00;101970.44;5038188;28;20015;-72
2022/10/04 09:26:42;;;;;;;;;;;;;;;13.08;100.00;101957.81;5040651;28;20433;-72
2022/10/04 09:29:26;;;;;;;;;;;;;;;13.15;100.00;101959.34;5043385;28;19929;-73
2022/10/04 09:31:54;;;;;;;;;;;;;;;13.22;100.00;101951.97;5044204;28;19925;-73
2022/10/04 09:34:23;;;;;;;;;;;;;;;13.26;100.00;101955.38;5045897;28;19936;-73
2022/10/04 09:36:49;;;;;;;;;;;;;;;13.30;100.00;101962.34;5060379;28;20393;-72
2022/10/04 09:39:19;;;;;;;;;;;;;;;13.31;100.00;101953.41;5044160;28;20323;-73
2022/10/04 09:41:54;;;;;;;;;;;;;;;13.30;100.00;101957.00;5045431;28;19936;-73
2022/10/04 09:44:25;;;;;;;;;;;;;;;13.31;100.00;101953.41;5045648;28;19983;-72
2022/10/04 09:47:23;;;;;;;;;;;;;;;13.34;100.00;101955.09;5045105;28;19924;-73
2022/10/04 09:49:49;;;;;;;;;;;;;;;13.36;100.00;101946.13;5032289;28;20386;-73
2022/10/04 09:52:17;;;;;;;;;;;;;;;13.37;100.00;101945.19;5040944;28;20524;-73
2022/10/04 09:55:03;;;;;;;;;;;;;;;13.39;100.00;101934.47;5046040;28;19925;-74
2022/10/04 09:57:32;;;;;;;;;;;;;;;13.38;100.00;101936.28;5030622;28;20528;-73
2022/10/04 10:00:27;;;;;;;;;;;;;;;13.43;100.00;101929.00;5046041;28;19932;-73
2022/10/04 10:03:05;;;;;;;;;;;;;;;13.51;100.00;101931.38;5037447;28;19929;-73
2022/10/04 10:05:49;;;;;;;;;;;;;;;13.62;100.00;101925.59;5045144;28;19998;-72
2022/10/04 10:08:15;;;;;;;;;;;;;;;13.76;100.00;101926.81;5045559;28;19925;-72
2022/10/04 10:14:12;;;;;;;;;;;;;;;13.97;100.00;101931.28;5044622;28;19936;-71
2022/10/04 10:16:40;;;;;;;;;;;;;;;13.99;100.00;101940.03;4981445;28;19991;-72
2022/10/04 10:19:10;;;;;;;;;;;;;;;14.03;100.00;101942.56;5029892;28;19932;-72
2022/10/04 10:21:57;;;;;;;;;;;;;;;14.04;100.00;101938.97;5042310;28;19933;-72
2022/10/04 10:24:25;;;;;;;;;;;;;;;14.06;100.00;101939.78;5046730;28;19954;-71
2022/10/04 10:26:50;;;;;;;;;;;;;;;14.06;100.00;101937.13;5049714;28;19935;-72
2022/10/04 10:29:35;;;;;;;;;;;;;;;14.12;100.00;101939.53;5044546;28;19929;-72
2022/10/04 10:32:03;;;;;;;;;;;;;;;14.12;100.00;101927.06;5062620;28;20470;-72
2022/10/04 10:34:51;;;;;;;;;;;;;;;14.14;100.00;101921.69;5048815;28;19934;-72
2022/10/04 10:37:17;;;;;;;;;;;;;;;14.13;100.00;101926.13;5046768;28;19920;-72
2022/10/04 10:39:49;;;;;;;;;;;;;;;14.20;100.00;101936.50;5047299;28;19929;-72
2022/10/04 10:42:33;;;;;;;;;;;;;;;14.22;100.00;101930.19;5049176;28;19940;-73
2022/10/04 10:44:58;;;;;;;;;;;;;;;14.25;100.00;101924.75;5048043;28;20497;-72
2022/10/04 10:47:25;;;;;;;;;;;;;;;14.32;100.00;101921.81;5047521;28;20056;-72
2022/10/04 10:50:09;;;;;;;;;;;;;;;14.34;100.00;101914.63;5048597;28;20283;-72
2022/10/04 10:52:34;;;;;;;;;;;;;;;14.31;100.00;101901.41;5048003;28;19982;-72
2022/10/04 10:55:19;;;;;;;;;;;;;;;14.30;100.00;101894.34;5048066;28;19929;-72
2022/10/04 10:58:03;;;;;;;;;;;;;;;14.32;100.00;101901.34;5048141;28;19925;-72
2022/10/04 11:00:34;;;;;;;;;;;;;;;14.33;100.00;101895.09;5047980;28;19925;-73
2022/10/04 11:03:06;;;;;;;;;;;;;;;14.39;100.00;101901.97;5045913;28;21299;-73
2022/10/04 11:05:41;;;;;;;;;;;;;;;14.44;100.00;101899.94;5047331;28;19925;-73
2022/10/04 11:08:06;;;;;;;;;;;;;;;14.48;100.00;101898.88;5048278;28;20057;-72
2022/10/04 11:10:32;;;;;;;;;;;;;;;14.52;100.00;101891.59;5047681;28;20395;-72
2022/10/04 11:13:03;;;;;;;;;;;;;;;14.56;100.00;101897.66;5049028;28;20403;-72
2022/10/04 11:15:52;;;;;;;;;;;;;;;14.59;100.00;101890.38;5049140;28;20603;-72
2022/10/04 11:18:26;;;;;;;;;;;;;;;14.60;100.00;101880.59;5044243;28;19920;-72
2022/10/04 11:20:58;;;;;;;;;;;;;;;14.63;100.00;101875.13;5048711;28;19927;-72
2022/10/04 11:23:26;;;;;;;;;;;;;;;14.66;100.00;101880.31;5063658;28;19935;-72
2022/10/04 11:26:11;;;;;;;;;;;;;;;14.65;100.00;101882.13;5046105;28;19928;-72
2022/10/04 11:28:45;;;;;;;;;;;;;;;14.70;100.00;101889.03;5080714;28;19929;-72
2022/10/04 11:31:22;;;;;;;;;;;;;;;14.76;100.00;101886.97;5049153;28;20424;-72
2022/10/04 11:33:51;;;;;;;;;;;;;;;14.81;100.00;101886.75;5049153;28;19935;-72
2022/10/04 11:36:17;;;;;;;;;;;;;;;14.78;100.00;101879.75;5049013;28;19928;-72
2022/10/04 11:38:47;;;;;;;;;;;;;;;14.78;100.00;101884.25;5048999;28;19932;-72
2022/10/04 11:41:15;;;;;;;;;;;;;;;14.79;100.00;101880.63;5048492;28;19920;-72
2022/10/04 11:43:47;;;;;;;;;;;;;;;14.84;100.00;101873.28;5047288;28;19998;-72
2022/10/04 11:46:15;;;;;;;;;;;;;;;14.85;100.00;101876.81;5046580;28;19932;-72
2022/10/04 11:48:53;;;;;;;;;;;;;;;14.84;100.00;101873.28;5048280;28;19932;-72
2022/10/04 11:51:18;;;;;;;;;;;;;;;14.86;100.00;101868.75;5049041;28;19928;-72
2022/10/04 11:53:53;;;;;;;;;;;;;;;14.87;100.00;101858.97;5047640;28;19978;-72
2022/10/04 11:56:21;;;;;;;;;;;;;;;14.89;100.00;101859.75;5046374;28;19975;-72
2022/10/04 11:58:56;;;;;;;;;;;;;;;14.91;100.00;101853.41;5063321;28;20290;-72
2022/10/04 12:01:31;;;;;;;;;;;;;;;14.88;100.00;101852.69;5049015;28;19925;-72
2022/10/04 12:04:15;;;;;;;;;;;;;;;14.92;100.00;101848.91;5047097;28;19932;-72
2022/10/04 12:06:59;;;;;;;;;;;;;;;14.96;100.00;101860.28;5048367;28;19964;-70
2022/10/04 12:09:25;;;;;;;;;;;;;;;14.98;100.00;101848.63;5048929;28;19931;-70
2022/10/04 12:14:50;;;;;;;;;;;;;;;15.05;100.00;101838.53;5048059;28;19929;-71
2022/10/04 12:17:35;;;;;;;;;;;;;;;15.03;100.00;101829.75;5046187;28;19928;-71
2022/10/04 12:20:19;;;;;;;;;;;;;;;15.08;100.00;101819.72;5047510;28;19969;-71
2022/10/04 12:23:03;;;;;;;;;;;;;;;15.11;100.00;101813.38;5048276;28;19958;-71
2022/10/04 12:25:36;;;;;;;;;;;;;;;15.15;100.00;101801.63;5048049;28;21320;-71
2022/10/04 12:28:11;;;;;;;;;;;;;;;15.27;100.00;101800.13;5047058;28;20435;-71
2022/10/04 12:30:52;;;;;;;;;;;;;;;15.36;100.00;101798.81;5048369;28;19925;-71
2022/10/04 12:33:30;;;;;;;;;;;;;;;15.43;100.00;101790.41;5046586;28;19957;-71
2022/10/04 12:35:58;;;;;;;;;;;;;;;15.48;100.00;101787.53;5048188;28;20481;-71
2022/10/04 12:38:24;;;;;;;;;;;;;;;15.49;100.00;101789.25;5045708;28;19978;-71
2022/10/04 12:40:58;;;;;;;;;;;;;;;15.48;100.00;101792.84;5047797;28;19929;-72
2022/10/04 12:43:44;;;;;;;;;;;;;;;15.47;100.00;101783.09;5046496;28;19924;-72
2022/10/04 12:46:14;;;;;;;;;;;;;;;15.47;100.00;101781.31;5046371;28;19995;-71
2022/10/04 12:49:15;;;;;;;;;;;;;;;15.50;100.00;101782.97;5047504;28;19929;-72
2022/10/04 12:51:57;;;;;;;;;;;;;;;15.55;100.00;101772.91;5030143;28;19936;-72
2022/10/04 12:54:33;;;;;;;;;;;;;;;15.61;100.00;101761.94;5044167;28;19928;-71
2022/10/04 12:57:14;;;;;;;;;;;;;;;15.64;100.00;101770.72;5046848;28;20642;-72
2022/10/04 12:59:42;;;;;;;;;;;;;;;15.64;100.00;101774.25;5048846;28;19920;-72
2022/10/04 13:02:08;;;;;;;;;;;;;;;15.64;100.00;101763.56;5045642;28;19974;-71
2022/10/04 13:04:34;;;;;;;;;;;;;;;15.64;100.00;101766.25;5044133;28;20019;-72
2022/10/04 13:07:09;;;;;;;;;;;;;;;15.67;100.00;101754.50;5045941;28;19960;-71